sensor_id;sensor_type;location;lat;lon;timestamp;temperature;humidity
51305;HTU21D;37392;50.964;6.952;2024-01-15T00:01:57;1.38;-1.91
51305;HTU21D;37392;50.964;6.952;2024-01-15T00:04:23;1.29;-1.43
51305;HTU21D;37392;50.964;6.952;2024-01-15T00:06:49;1.21;-0.93
51305;HTU21D;37392;50.964;6.952;2024-01-15T00:09:15;1.17;-0.66
51305;HTU21D;37392;50.964;6.952;2024-01-15T00:11:47;1.19;0.09
51305;HTU21D;37392;50.964;6.952;2024-01-15T00:14:12;1.17;-0.03
51305;HTU21D;37392;50.964;6.952;2024-01-15T00:16:40;1.21;0.53
51305;HTU21D;37392;50.964;6.952;2024-01-15T00:19:06;1.22;1.00
51305;HTU21D;37392;50.964;6.952;2024-01-15T00:21:31;1.24;0.47
51305;HTU21D;37392;50.964;6.952;2024-01-15T00:23:57;1.25;0.86
51305;HTU21D;37392;50.964;6.952;2024-01-15T00:26:23;1.18;0.64
51305;HTU21D;37392;50.964;6.952;2024-01-15T00:28:48;1.11;1.15
51305;HTU21D;37392;50.964;6.952;2024-01-15T00:31:16;1.10;1.61
51305;HTU21D;37392;50.964;6.952;2024-01-15T00:33:42;1.07;1.73
51305;HTU21D;37392;50.964;6.952;2024-01-15T00:36:08;1.06;1.71
51305;HTU21D;37392;50.964;6.952;2024-01-15T00:38:33;1.02;1.86
51305;HTU21D;37392;50.964;6.952;2024-01-15T00:40:59;0.94;2.18
51305;HTU21D;37392;50.964;6.952;2024-01-15T00:43:25;0.92;2.13
51305;HTU21D;37392;50.964;6.952;2024-01-15T00:45:51;0.89;2.39
51305;HTU21D;37392;50.964;6.952;2024-01-15T00:48:16;0.84;2.84
51305;HTU21D;37392;50.964;6.952;2024-01-15T00:50:42;0.87;2.99
51305;HTU21D;37392;50.964;6.952;2024-01-15T00:53:07;0.84;3.11
51305;HTU21D;37392;50.964;6.952;2024-01-15T00:55:33;0.88;3.38
51305;HTU21D;37392;50.964;6.952;2024-01-15T00:57:58;0.84;3.58
51305;HTU21D;37392;50.964;6.952;2024-01-15T01:00:24;0.89;3.69
51305;HTU21D;37392;50.964;6.952;2024-01-15T01:02:49;0.93;3.74
51305;HTU21D;37392;50.964;6.952;2024-01-15T01:05:15;0.95;3.70
51305;HTU21D;37392;50.964;6.952;2024-01-15T01:07:40;0.99;3.77
51305;HTU21D;37392;50.964;6.952;2024-01-15T01:10:06;1.02;3.80
51305;HTU21D;37392;50.964;6.952;2024-01-15T01:12:32;1.06;3.67
51305;HTU21D;37392;50.964;6.952;2024-01-15T01:14:57;1.04;3.38
51305;HTU21D;37392;50.964;6.952;2024-01-15T01:17:24;1.02;3.63
51305;HTU21D;37392;50.964;6.952;2024-01-15T01:19:50;1.04;3.90
51305;HTU21D;37392;50.964;6.952;2024-01-15T01:22:16;1.03;3.67
51305;HTU21D;37392;50.964;6.952;2024-01-15T01:24:41;1.04;3.83
51305;HTU21D;37392;50.964;6.952;2024-01-15T01:27:09;1.05;3.92
51305;HTU21D;37392;50.964;6.952;2024-01-15T01:29:35;1.10;4.17
51305;HTU21D;37392;50.964;6.952;2024-01-15T01:32:00;1.08;4.15
51305;HTU21D;37392;50.964;6.952;2024-01-15T01:34:26;1.08;3.86
51305;HTU21D;37392;50.964;6.952;2024-01-15T01:36:51;1.10;3.92
51305;HTU21D;37392;50.964;6.952;2024-01-15T01:39:17;1.09;4.19
51305;HTU21D;37392;50.964;6.952;2024-01-15T01:41:42;1.07;4.15
51305;HTU21D;37392;50.964;6.952;2024-01-15T01:44:08;1.11;4.27
51305;HTU21D;37392;50.964;6.952;2024-01-15T01:46:34;1.08;4.10
51305;HTU21D;37392;50.964;6.952;2024-01-15T01:49:05;1.11;3.96
51305;HTU21D;37392;50.964;6.952;2024-01-15T01:51:31;1.13;3.89
51305;HTU21D;37392;50.964;6.952;2024-01-15T01:53:59;1.14;3.93
51305;HTU21D;37392;50.964;6.952;2024-01-15T01:56:25;1.13;3.99
51305;HTU21D;37392;50.964;6.952;2024-01-15T01:58:51;1.13;4.00
51305;HTU21D;37392;50.964;6.952;2024-01-15T02:01:17;1.17;3.96
51305;HTU21D;37392;50.964;6.952;2024-01-15T02:03:43;1.20;3.84
51305;HTU21D;37392;50.964;6.952;2024-01-15T02:06:09;1.18;3.90
51305;HTU21D;37392;50.964;6.952;2024-01-15T02:08:35;1.22;3.71
51305;HTU21D;37392;50.964;6.952;2024-01-15T02:11:00;1.24;3.29
51305;HTU21D;37392;50.964;6.952;2024-01-15T02:13:26;1.25;3.23
51305;HTU21D;37392;50.964;6.952;2024-01-15T02:15:51;1.25;3.43
51305;HTU21D;37392;50.964;6.952;2024-01-15T02:18:17;1.32;2.90
51305;HTU21D;37392;50.964;6.952;2024-01-15T02:20:42;1.35;2.58
51305;HTU21D;37392;50.964;6.952;2024-01-15T02:23:11;1.35;2.68
51305;HTU21D;37392;50.964;6.952;2024-01-15T02:25:44;1.34;3.11
51305;HTU21D;37392;50.964;6.952;2024-01-15T02:28:14;1.32;2.94
51305;HTU21D;37392;50.964;6.952;2024-01-15T02:30:41;1.34;2.92
51305;HTU21D;37392;50.964;6.952;2024-01-15T02:33:08;1.37;3.41
51305;HTU21D;37392;50.964;6.952;2024-01-15T02:35:34;1.37;3.38
51305;HTU21D;37392;50.964;6.952;2024-01-15T02:38:04;1.34;2.84
51305;HTU21D;37392;50.964;6.952;2024-01-15T02:40:30;1.40;3.20
51305;HTU21D;37392;50.964;6.952;2024-01-15T02:42:56;1.40;3.03
51305;HTU21D;37392;50.964;6.952;2024-01-15T02:45:22;1.40;3.00
51305;HTU21D;37392;50.964;6.952;2024-01-15T02:47:48;1.40;2.78
51305;HTU21D;37392;50.964;6.952;2024-01-15T02:50:14;1.42;2.16
51305;HTU21D;37392;50.964;6.952;2024-01-15T02:52:40;1.46;2.42
51305;HTU21D;37392;50.964;6.952;2024-01-15T02:55:06;1.41;1.82
51305;HTU21D;37392;50.964;6.952;2024-01-15T02:57:32;1.40;1.79
51305;HTU21D;37392;50.964;6.952;2024-01-15T02:59:58;1.45;1.61
51305;HTU21D;37392;50.964;6.952;2024-01-15T03:02:23;1.41;1.78
51305;HTU21D;37392;50.964;6.952;2024-01-15T03:04:49;1.38;1.19
51305;HTU21D;37392;50.964;6.952;2024-01-15T03:07:14;1.41;1.15
51305;HTU21D;37392;50.964;6.952;2024-01-15T03:09:40;1.41;1.67
51305;HTU21D;37392;50.964;6.952;2024-01-15T03:12:06;1.35;1.73
51305;HTU21D;37392;50.964;6.952;2024-01-15T03:14:32;1.34;1.66
51305;HTU21D;37392;50.964;6.952;2024-01-15T03:16:57;1.33;2.13
51305;HTU21D;37392;50.964;6.952;2024-01-15T03:19:23;1.31;1.79
51305;HTU21D;37392;50.964;6.952;2024-01-15T03:21:49;1.34;2.03
51305;HTU21D;37392;50.964;6.952;2024-01-15T03:24:14;1.34;1.98
51305;HTU21D;37392;50.964;6.952;2024-01-15T03:26:40;1.33;2.36
51305;HTU21D;37392;50.964;6.952;2024-01-15T03:29:05;1.28;2.38
51305;HTU21D;37392;50.964;6.952;2024-01-15T03:31:32;1.26;2.20
51305;HTU21D;37392;50.964;6.952;2024-01-15T03:33:58;1.32;2.34
51305;HTU21D;37392;50.964;6.952;2024-01-15T03:36:23;1.29;1.81
51305;HTU21D;37392;50.964;6.952;2024-01-15T03:38:48;1.38;1.64
51305;HTU21D;37392;50.964;6.952;2024-01-15T03:41:14;1.39;2.02
51305;HTU21D;37392;50.964;6.952;2024-01-15T03:43:40;1.45;1.94
51305;HTU21D;37392;50.964;6.952;2024-01-15T03:46:06;1.40;1.56
51305;HTU21D;37392;50.964;6.952;2024-01-15T03:48:32;1.39;1.99
51305;HTU21D;37392;50.964;6.952;2024-01-15T03:50:57;1.40;2.18
51305;HTU21D;37392;50.964;6.952;2024-01-15T03:53:23;1.46;2.18
51305;HTU21D;37392;50.964;6.952;2024-01-15T03:55:49;1.45;2.28
51305;HTU21D;37392;50.964;6.952;2024-01-15T03:58:15;1.47;1.72
51305;HTU21D;37392;50.964;6.952;2024-01-15T04:00:41;1.50;1.37
51305;HTU21D;37392;50.964;6.952;2024-01-15T04:03:07;1.45;1.16
51305;HTU21D;37392;50.964;6.952;2024-01-15T04:05:32;1.47;1.61
51305;HTU21D;37392;50.964;6.952;2024-01-15T04:07:58;1.45;1.29
51305;HTU21D;37392;50.964;6.952;2024-01-15T04:10:23;1.49;1.56
51305;HTU21D;37392;50.964;6.952;2024-01-15T04:12:49;1.51;1.64
51305;HTU21D;37392;50.964;6.952;2024-01-15T04:15:14;1.53;1.69
51305;HTU21D;37392;50.964;6.952;2024-01-15T04:17:40;1.54;1.54
51305;HTU21D;37392;50.964;6.952;2024-01-15T04:20:06;1.56;2.03
51305;HTU21D;37392;50.964;6.952;2024-01-15T04:22:33;1.56;2.06
51305;HTU21D;37392;50.964;6.952;2024-01-15T04:25:00;1.53;1.77
51305;HTU21D;37392;50.964;6.952;2024-01-15T04:27:25;1.50;1.29
51305;HTU21D;37392;50.964;6.952;2024-01-15T04:29:51;1.42;1.61
51305;HTU21D;37392;50.964;6.952;2024-01-15T04:32:16;1.48;1.84
51305;HTU21D;37392;50.964;6.952;2024-01-15T04:34:42;1.47;1.99
51305;HTU21D;37392;50.964;6.952;2024-01-15T04:37:07;1.52;1.95
51305;HTU21D;37392;50.964;6.952;2024-01-15T04:39:33;1.56;1.51
51305;HTU21D;37392;50.964;6.952;2024-01-15T04:41:58;1.57;1.45
51305;HTU21D;37392;50.964;6.952;2024-01-15T04:44:24;1.61;1.45
51305;HTU21D;37392;50.964;6.952;2024-01-15T04:46:49;1.61;1.97
51305;HTU21D;37392;50.964;6.952;2024-01-15T04:49:15;1.65;2.06
51305;HTU21D;37392;50.964;6.952;2024-01-15T04:51:40;1.70;2.17
51305;HTU21D;37392;50.964;6.952;2024-01-15T04:54:05;1.69;1.41
51305;HTU21D;37392;50.964;6.952;2024-01-15T04:56:31;1.70;1.41
51305;HTU21D;37392;50.964;6.952;2024-01-15T04:58:56;1.69;1.10
51305;HTU21D;37392;50.964;6.952;2024-01-15T05:01:22;1.70;0.79
51305;HTU21D;37392;50.964;6.952;2024-01-15T05:03:47;1.77;1.29
51305;HTU21D;37392;50.964;6.952;2024-01-15T05:06:14;1.77;1.06
51305;HTU21D;37392;50.964;6.952;2024-01-15T05:08:40;1.78;0.91
51305;HTU21D;37392;50.964;6.952;2024-01-15T05:11:05;1.76;0.95
51305;HTU21D;37392;50.964;6.952;2024-01-15T05:13:31;1.78;0.48
51305;HTU21D;37392;50.964;6.952;2024-01-15T05:15:56;1.79;1.10
51305;HTU21D;37392;50.964;6.952;2024-01-15T05:18:22;1.68;0.41
51305;HTU21D;37392;50.964;6.952;2024-01-15T05:20:47;1.64;0.39
51305;HTU21D;37392;50.964;6.952;2024-01-15T05:23:13;1.60;0.60
51305;HTU21D;37392;50.964;6.952;2024-01-15T05:25:38;1.61;1.35
51305;HTU21D;37392;50.964;6.952;2024-01-15T05:28:05;1.67;1.55
51305;HTU21D;37392;50.964;6.952;2024-01-15T05:30:30;1.70;0.99
51305;HTU21D;37392;50.964;6.952;2024-01-15T05:32:56;1.75;0.54
51305;HTU21D;37392;50.964;6.952;2024-01-15T05:35:22;1.81;0.84
51305;HTU21D;37392;50.964;6.952;2024-01-15T05:37:48;1.80;0.89
51305;HTU21D;37392;50.964;6.952;2024-01-15T05:40:14;1.85;1.07
51305;HTU21D;37392;50.964;6.952;2024-01-15T05:42:40;1.88;1.00
51305;HTU21D;37392;50.964;6.952;2024-01-15T05:45:06;1.88;1.55
51305;HTU21D;37392;50.964;6.952;2024-01-15T05:47:32;1.87;1.13
51305;HTU21D;37392;50.964;6.952;2024-01-15T05:49:58;1.84;1.24
51305;HTU21D;37392;50.964;6.952;2024-01-15T05:52:24;1.85;1.10
51305;HTU21D;37392;50.964;6.952;2024-01-15T05:54:50;1.78;1.17
51305;HTU21D;37392;50.964;6.952;2024-01-15T05:57:15;1.76;0.91
51305;HTU21D;37392;50.964;6.952;2024-01-15T05:59:42;1.78;1.03
51305;HTU21D;37392;50.964;6.952;2024-01-15T06:02:09;1.77;1.43
51305;HTU21D;37392;50.964;6.952;2024-01-15T06:04:35;1.78;1.07
51305;HTU21D;37392;50.964;6.952;2024-01-15T06:07:00;1.79;1.48
51305;HTU21D;37392;50.964;6.952;2024-01-15T06:09:26;1.78;1.87
51305;HTU21D;37392;50.964;6.952;2024-01-15T06:11:51;1.81;2.11
51305;HTU21D;37392;50.964;6.952;2024-01-15T06:14:17;1.82;1.74
51305;HTU21D;37392;50.964;6.952;2024-01-15T06:16:42;1.83;1.64
51305;HTU21D;37392;50.964;6.952;2024-01-15T06:19:08;1.86;0.94
51305;HTU21D;37392;50.964;6.952;2024-01-15T06:21:33;1.84;0.62
51305;HTU21D;37392;50.964;6.952;2024-01-15T06:23:59;1.86;0.97
51305;HTU21D;37392;50.964;6.952;2024-01-15T06:26:24;1.87;1.39
51305;HTU21D;37392;50.964;6.952;2024-01-15T06:28:50;1.87;1.01
51305;HTU21D;37392;50.964;6.952;2024-01-15T06:31:15;1.88;0.97
51305;HTU21D;37392;50.964;6.952;2024-01-15T06:33:41;1.93;1.52
51305;HTU21D;37392;50.964;6.952;2024-01-15T06:36:07;1.95;1.42
51305;HTU21D;37392;50.964;6.952;2024-01-15T06:38:33;1.94;0.97
51305;HTU21D;37392;50.964;6.952;2024-01-15T06:40:58;1.95;0.76
51305;HTU21D;37392;50.964;6.952;2024-01-15T06:43:24;1.94;1.12
51305;HTU21D;37392;50.964;6.952;2024-01-15T06:45:49;1.94;1.02
51305;HTU21D;37392;50.964;6.952;2024-01-15T06:48:15;1.94;0.84
51305;HTU21D;37392;50.964;6.952;2024-01-15T06:50:42;1.95;0.87
51305;HTU21D;37392;50.964;6.952;2024-01-15T06:53:08;1.96;0.86
51305;HTU21D;37392;50.964;6.952;2024-01-15T06:55:37;1.88;0.92
51305;HTU21D;37392;50.964;6.952;2024-01-15T06:58:03;1.90;0.65
51305;HTU21D;37392;50.964;6.952;2024-01-15T07:00:29;1.84;1.29
51305;HTU21D;37392;50.964;6.952;2024-01-15T07:02:54;1.86;1.84
51305;HTU21D;37392;50.964;6.952;2024-01-15T07:05:20;1.81;2.10
51305;HTU21D;37392;50.964;6.952;2024-01-15T07:07:46;1.79;1.97
51305;HTU21D;37392;50.964;6.952;2024-01-15T07:10:12;1.84;1.89
51305;HTU21D;37392;50.964;6.952;2024-01-15T07:12:38;1.84;2.19
51305;HTU21D;37392;50.964;6.952;2024-01-15T07:15:04;1.84;2.13
51305;HTU21D;37392;50.964;6.952;2024-01-15T07:17:33;1.88;2.15
51305;HTU21D;37392;50.964;6.952;2024-01-15T07:19:58;1.87;2.26
51305;HTU21D;37392;50.964;6.952;2024-01-15T07:22:24;1.88;2.46
51305;HTU21D;37392;50.964;6.952;2024-01-15T07:24:49;1.93;2.64
51305;HTU21D;37392;50.964;6.952;2024-01-15T07:27:15;1.93;2.39
51305;HTU21D;37392;50.964;6.952;2024-01-15T07:29:41;1.92;2.11
51305;HTU21D;37392;50.964;6.952;2024-01-15T07:32:09;1.92;2.63
51305;HTU21D;37392;50.964;6.952;2024-01-15T07:34:34;1.96;2.74
51305;HTU21D;37392;50.964;6.952;2024-01-15T07:37:03;1.98;2.77
51305;HTU21D;37392;50.964;6.952;2024-01-15T07:39:29;1.97;2.85
51305;HTU21D;37392;50.964;6.952;2024-01-15T07:41:55;2.01;2.22
51305;HTU21D;37392;50.964;6.952;2024-01-15T07:44:21;1.98;2.58
51305;HTU21D;37392;50.964;6.952;2024-01-15T07:46:47;1.98;2.19
51305;HTU21D;37392;50.964;6.952;2024-01-15T07:49:12;1.97;2.31
51305;HTU21D;37392;50.964;6.952;2024-01-15T07:51:38;2.00;2.20
51305;HTU21D;37392;50.964;6.952;2024-01-15T07:54:06;2.07;2.49
51305;HTU21D;37392;50.964;6.952;2024-01-15T07:56:32;2.07;2.10
51305;HTU21D;37392;50.964;6.952;2024-01-15T07:58:58;2.07;2.10
51305;HTU21D;37392;50.964;6.952;2024-01-15T08:01:24;2.08;1.95
51305;HTU21D;37392;50.964;6.952;2024-01-15T08:03:49;2.15;1.64
51305;HTU21D;37392;50.964;6.952;2024-01-15T08:06:15;2.14;1.96
51305;HTU21D;37392;50.964;6.952;2024-01-15T08:08:41;2.17;1.61
51305;HTU21D;37392;50.964;6.952;2024-01-15T08:11:06;2.21;1.54
51305;HTU21D;37392;50.964;6.952;2024-01-15T08:13:32;2.23;0.96
51305;HTU21D;37392;50.964;6.952;2024-01-15T08:15:58;2.23;0.63
51305;HTU21D;37392;50.964;6.952;2024-01-15T08:18:23;2.31;0.79
51305;HTU21D;37392;50.964;6.952;2024-01-15T08:20:49;2.37;0.29
51305;HTU21D;37392;50.964;6.952;2024-01-15T08:23:16;2.41;0.65
51305;HTU21D;37392;50.964;6.952;2024-01-15T08:25:42;2.38;-0.46
51305;HTU21D;37392;50.964;6.952;2024-01-15T08:28:07;2.37;-0.76
51305;HTU21D;37392;50.964;6.952;2024-01-15T08:30:33;2.38;-1.30
51305;HTU21D;37392;50.964;6.952;2024-01-15T08:32:59;2.39;-1.05
51305;HTU21D;37392;50.964;6.952;2024-01-15T08:35:25;2.40;-0.95
51305;HTU21D;37392;50.964;6.952;2024-01-15T08:37:51;2.44;-0.93
51305;HTU21D;37392;50.964;6.952;2024-01-15T08:40:18;2.43;-1.90
51305;HTU21D;37392;50.964;6.952;2024-01-15T08:42:44;2.46;-1.33
51305;HTU21D;37392;50.964;6.952;2024-01-15T08:45:11;2.50;-0.86
51305;HTU21D;37392;50.964;6.952;2024-01-15T08:47:36;2.51;-0.52
51305;HTU21D;37392;50.964;6.952;2024-01-15T08:50:03;2.52;-1.29
51305;HTU21D;37392;50.964;6.952;2024-01-15T08:52:29;2.49;-1.68
51305;HTU21D;37392;50.964;6.952;2024-01-15T08:54:56;2.51;-1.54
51305;HTU21D;37392;50.964;6.952;2024-01-15T08:57:22;2.54;-0.92
51305;HTU21D;37392;50.964;6.952;2024-01-15T08:59:48;2.51;-1.30
51305;HTU21D;37392;50.964;6.952;2024-01-15T09:02:14;2.50;-0.95
51305;HTU21D;37392;50.964;6.952;2024-01-15T09:04:39;2.47;-1.12
51305;HTU21D;37392;50.964;6.952;2024-01-15T09:07:07;2.44;-0.97
51305;HTU21D;37392;50.964;6.952;2024-01-15T09:09:32;2.43;-1.05
51305;HTU21D;37392;50.964;6.952;2024-01-15T09:11:59;2.46;-0.96
51305;HTU21D;37392;50.964;6.952;2024-01-15T09:14:24;2.44;-0.88
51305;HTU21D;37392;50.964;6.952;2024-01-15T09:16:52;2.39;-0.46
51305;HTU21D;37392;50.964;6.952;2024-01-15T09:19:18;2.40;-0.47
51305;HTU21D;37392;50.964;6.952;2024-01-15T09:21:44;2.41;-0.50
51305;HTU21D;37392;50.964;6.952;2024-01-15T09:24:09;2.37;-0.56
51305;HTU21D;37392;50.964;6.952;2024-01-15T09:26:35;2.40;0.23
51305;HTU21D;37392;50.964;6.952;2024-01-15T09:29:00;2.39;0.53
51305;HTU21D;37392;50.964;6.952;2024-01-15T09:31:26;2.38;0.08
51305;HTU21D;37392;50.964;6.952;2024-01-15T09:33:52;2.36;0.46
51305;HTU21D;37392;50.964;6.952;2024-01-15T09:36:21;2.41;1.12
51305;HTU21D;37392;50.964;6.952;2024-01-15T09:38:48;2.38;0.94
51305;HTU21D;37392;50.964;6.952;2024-01-15T09:41:14;2.31;0.63
51305;HTU21D;37392;50.964;6.952;2024-01-15T09:43:40;2.32;0.74
51305;HTU21D;37392;50.964;6.952;2024-01-15T09:46:06;2.25;1.19
51305;HTU21D;37392;50.964;6.952;2024-01-15T09:48:32;2.26;1.59
51305;HTU21D;37392;50.964;6.952;2024-01-15T09:51:01;2.30;2.15
51305;HTU21D;37392;50.964;6.952;2024-01-15T09:53:27;2.31;2.24
51305;HTU21D;37392;50.964;6.952;2024-01-15T09:55:53;2.35;2.29
51305;HTU21D;37392;50.964;6.952;2024-01-15T09:58:19;2.41;2.58
51305;HTU21D;37392;50.964;6.952;2024-01-15T10:00:47;2.43;1.86
51305;HTU21D;37392;50.964;6.952;2024-01-15T10:03:15;2.43;1.21
51305;HTU21D;37392;50.964;6.952;2024-01-15T10:05:41;2.45;1.48
51305;HTU21D;37392;50.964;6.952;2024-01-15T10:08:07;2.49;1.32
51305;HTU21D;37392;50.964;6.952;2024-01-15T10:10:34;2.54;1.53
51305;HTU21D;37392;50.964;6.952;2024-01-15T10:13:01;2.62;2.21
51305;HTU21D;37392;50.964;6.952;2024-01-15T10:15:29;2.80;2.45
51305;HTU21D;37392;50.964;6.952;2024-01-15T10:17:55;2.94;2.71
51305;HTU21D;37392;50.964;6.952;2024-01-15T10:20:21;2.89;1.58
51305;HTU21D;37392;50.964;6.952;2024-01-15T10:22:50;2.82;1.18
51305;HTU21D;37392;50.964;6.952;2024-01-15T10:25:16;2.67;1.23
51305;HTU21D;37392;50.964;6.952;2024-01-15T10:27:41;2.60;1.53
51305;HTU21D;37392;50.964;6.952;2024-01-15T10:30:08;2.50;1.63
51305;HTU21D;37392;50.964;6.952;2024-01-15T10:32:39;2.56;2.97
51305;HTU21D;37392;50.964;6.952;2024-01-15T10:35:07;2.65;2.73
51305;HTU21D;37392;50.964;6.952;2024-01-15T10:37:33;2.70;3.03
51305;HTU21D;37392;50.964;6.952;2024-01-15T10:40:02;2.76;2.95
51305;HTU21D;37392;50.964;6.952;2024-01-15T10:42:30;2.83;3.68
51305;HTU21D;37392;50.964;6.952;2024-01-15T10:44:56;2.80;2.16
51305;HTU21D;37392;50.964;6.952;2024-01-15T10:47:22;2.78;2.46
51305;HTU21D;37392;50.964;6.952;2024-01-15T10:49:48;2.69;2.30
51305;HTU21D;37392;50.964;6.952;2024-01-15T10:52:14;2.50;1.59
51305;HTU21D;37392;50.964;6.952;2024-01-15T10:54:41;2.36;1.87
51305;HTU21D;37392;50.964;6.952;2024-01-15T10:57:09;2.24;1.87
51305;HTU21D;37392;50.964;6.952;2024-01-15T10:59:36;2.19;2.10
51305;HTU21D;37392;50.964;6.952;2024-01-15T11:02:02;2.25;3.32
51305;HTU21D;37392;50.964;6.952;2024-01-15T11:04:28;2.36;4.16
51305;HTU21D;37392;50.964;6.952;2024-01-15T11:06:57;2.52;4.21
51305;HTU21D;37392;50.964;6.952;2024-01-15T11:09:23;2.62;3.92
51305;HTU21D;37392;50.964;6.952;2024-01-15T11:12:06;2.68;3.85
51305;HTU21D;37392;50.964;6.952;2024-01-15T11:14:46;2.75;3.86
51305;HTU21D;37392;50.964;6.952;2024-01-15T11:17:13;2.84;3.35
51305;HTU21D;37392;50.964;6.952;2024-01-15T11:19:47;2.96;3.45
51305;HTU21D;37392;50.964;6.952;2024-01-15T11:24:57;3.18;2.80
51305;HTU21D;37392;50.964;6.952;2024-01-15T11:27:42;3.33;2.89
51305;HTU21D;37392;50.964;6.952;2024-01-15T11:30:09;3.33;1.02
51305;HTU21D;37392;50.964;6.952;2024-01-15T11:32:38;3.35;1.66
51305;HTU21D;37392;50.964;6.952;2024-01-15T11:35:07;3.46;2.29
51305;HTU21D;37392;50.964;6.952;2024-01-15T11:40:21;3.35;0.46
51305;HTU21D;37392;50.964;6.952;2024-01-15T11:42:48;3.35;1.13
51305;HTU21D;37392;50.964;6.952;2024-01-15T11:45:21;3.35;1.58
51305;HTU21D;37392;50.964;6.952;2024-01-15T11:47:56;3.35;1.31
51305;HTU21D;37392;50.964;6.952;2024-01-15T11:50:30;3.40;1.71
51305;HTU21D;37392;50.964;6.952;2024-01-15T11:53:00;3.44;1.80
51305;HTU21D;37392;50.964;6.952;2024-01-15T11:55:28;3.50;1.70
51305;HTU21D;37392;50.964;6.952;2024-01-15T11:57:57;3.53;0.57
51305;HTU21D;37392;50.964;6.952;2024-01-15T12:00:26;3.65;0.52
51305;HTU21D;37392;50.964;6.952;2024-01-15T12:02:51;3.61;-0.48
51305;HTU21D;37392;50.964;6.952;2024-01-15T12:05:18;3.50;-0.72
51305;HTU21D;37392;50.964;6.952;2024-01-15T12:07:49;3.53;1.06
51305;HTU21D;37392;50.964;6.952;2024-01-15T12:10:19;3.55;0.35
51305;HTU21D;37392;50.964;6.952;2024-01-15T12:13:25;3.41;-0.98
51305;HTU21D;37392;50.964;6.952;2024-01-15T12:15:45;3.31;0.64
51305;HTU21D;37392;50.964;6.952;2024-01-15T12:18:13;3.29;-0.80
51305;HTU21D;37392;50.964;6.952;2024-01-15T12:20:40;3.35;-0.71
51305;HTU21D;37392;50.964;6.952;2024-01-15T12:23:08;3.29;-2.25
51305;HTU21D;37392;50.964;6.952;2024-01-15T12:25:33;3.34;-1.38
51305;HTU21D;37392;50.964;6.952;2024-01-15T12:28:00;3.42;-1.26
51305;HTU21D;37392;50.964;6.952;2024-01-15T12:30:27;3.65;-0.90
51305;HTU21D;37392;50.964;6.952;2024-01-15T12:32:53;3.77;-2.57
51305;HTU21D;37392;50.964;6.952;2024-01-15T12:35:19;3.82;-4.40
51305;HTU21D;37392;50.964;6.952;2024-01-15T12:37:44;3.76;-5.29
51305;HTU21D;37392;50.964;6.952;2024-01-15T12:40:13;3.75;-4.05
51305;HTU21D;37392;50.964;6.952;2024-01-15T12:42:40;3.75;-3.47
51305;HTU21D;37392;50.964;6.952;2024-01-15T12:45:07;3.76;-3.02
51305;HTU21D;37392;50.964;6.952;2024-01-15T12:47:36;3.60;-4.17
51305;HTU21D;37392;50.964;6.952;2024-01-15T12:50:02;3.54;-3.21
51305;HTU21D;37392;50.964;6.952;2024-01-15T12:52:28;3.49;-3.57
51305;HTU21D;37392;50.964;6.952;2024-01-15T12:54:54;3.46;-3.76
51305;HTU21D;37392;50.964;6.952;2024-01-15T12:57:20;3.48;-3.28
51305;HTU21D;37392;50.964;6.952;2024-01-15T12:59:46;3.49;-3.85
51305;HTU21D;37392;50.964;6.952;2024-01-15T13:02:13;3.59;-3.69
51305;HTU21D;37392;50.964;6.952;2024-01-15T13:04:39;3.59;-4.25
51305;HTU21D;37392;50.964;6.952;2024-01-15T13:07:08;3.58;-5.08
51305;HTU21D;37392;50.964;6.952;2024-01-15T13:09:34;3.60;-5.13
51305;HTU21D;37392;50.964;6.952;2024-01-15T13:12:02;3.53;-5.50
51305;HTU21D;37392;50.964;6.952;2024-01-15T13:14:28;3.52;-5.63
51305;HTU21D;37392;50.964;6.952;2024-01-15T13:16:54;3.48;-4.86
51305;HTU21D;37392;50.964;6.952;2024-01-15T13:19:20;3.44;-4.66
51305;HTU21D;37392;50.964;6.952;2024-01-15T13:21:49;3.32;118.43
51305;HTU21D;37392;50.964;6.952;2024-01-15T13:24:18;3.34;-5.77
51305;HTU21D;37392;50.964;6.952;2024-01-15T13:26:44;3.33;-5.89
51305;HTU21D;37392;50.964;6.952;2024-01-15T13:29:10;3.31;-5.31
51305;HTU21D;37392;50.964;6.952;2024-01-15T13:31:36;3.34;-4.02
51305;HTU21D;37392;50.964;6.952;2024-01-15T13:34:01;3.40;-3.83
51305;HTU21D;37392;50.964;6.952;2024-01-15T13:36:28;3.45;-2.93
51305;HTU21D;37392;50.964;6.952;2024-01-15T13:38:54;3.42;-3.06
51305;HTU21D;37392;50.964;6.952;2024-01-15T13:41:20;3.46;-3.32
51305;HTU21D;37392;50.964;6.952;2024-01-15T13:43:54;3.57;-2.55
51305;HTU21D;37392;50.964;6.952;2024-01-15T13:46:25;3.52;-4.25
51305;HTU21D;37392;50.964;6.952;2024-01-15T13:48:52;3.48;-3.97
51305;HTU21D;37392;50.964;6.952;2024-01-15T13:51:18;3.52;-3.60
51305;HTU21D;37392;50.964;6.952;2024-01-15T13:53:43;3.50;-4.58
51305;HTU21D;37392;50.964;6.952;2024-01-15T13:56:09;3.56;-3.52
51305;HTU21D;37392;50.964;6.952;2024-01-15T13:58:35;3.62;-3.25
51305;HTU21D;37392;50.964;6.952;2024-01-15T14:01:02;3.61;-3.67
51305;HTU21D;37392;50.964;6.952;2024-01-15T14:03:31;3.59;-5.17
51305;HTU21D;37392;50.964;6.952;2024-01-15T14:05:57;3.54;-4.02
51305;HTU21D;37392;50.964;6.952;2024-01-15T14:08:23;3.48;-4.48
51305;HTU21D;37392;50.964;6.952;2024-01-15T14:10:48;3.35;-4.54
51305;HTU21D;37392;50.964;6.952;2024-01-15T14:13:14;3.32;-3.50
51305;HTU21D;37392;50.964;6.952;2024-01-15T14:15:39;3.28;-3.01
51305;HTU21D;37392;50.964;6.952;2024-01-15T14:18:05;3.30;-2.88
51305;HTU21D;37392;50.964;6.952;2024-01-15T14:20:31;3.28;-2.35
51305;HTU21D;37392;50.964;6.952;2024-01-15T14:22:56;3.13;-4.82
51305;HTU21D;37392;50.964;6.952;2024-01-15T14:25:22;3.12;-2.83
51305;HTU21D;37392;50.964;6.952;2024-01-15T14:27:49;3.08;-3.26
51305;HTU21D;37392;50.964;6.952;2024-01-15T14:30:15;3.13;-2.28
51305;HTU21D;37392;50.964;6.952;2024-01-15T14:32:42;3.17;-2.43
51305;HTU21D;37392;50.964;6.952;2024-01-15T14:35:08;3.26;-1.88
51305;HTU21D;37392;50.964;6.952;2024-01-15T14:37:37;3.29;-2.54
51305;HTU21D;37392;50.964;6.952;2024-01-15T14:40:06;3.36;-3.33
51305;HTU21D;37392;50.964;6.952;2024-01-15T14:42:36;3.36;-4.04
51305;HTU21D;37392;50.964;6.952;2024-01-15T14:45:03;3.38;-3.71
51305;HTU21D;37392;50.964;6.952;2024-01-15T14:47:31;3.38;-3.42
51305;HTU21D;37392;50.964;6.952;2024-01-15T14:49:56;3.35;-3.90
51305;HTU21D;37392;50.964;6.952;2024-01-15T14:52:23;3.35;-3.38
51305;HTU21D;37392;50.964;6.952;2024-01-15T14:54:49;3.30;-3.62
51305;HTU21D;37392;50.964;6.952;2024-01-15T14:57:15;3.28;-3.15
51305;HTU21D;37392;50.964;6.952;2024-01-15T14:59:40;3.21;-3.42
51305;HTU21D;37392;50.964;6.952;2024-01-15T15:02:06;3.16;-2.87
51305;HTU21D;37392;50.964;6.952;2024-01-15T15:04:32;3.12;-3.13
51305;HTU21D;37392;50.964;6.952;2024-01-15T15:06:57;3.09;-2.18
51305;HTU21D;37392;50.964;6.952;2024-01-15T15:09:23;3.01;-2.64
51305;HTU21D;37392;50.964;6.952;2024-01-15T15:11:48;2.99;-2.15
51305;HTU21D;37392;50.964;6.952;2024-01-15T15:14:14;2.98;-1.97
51305;HTU21D;37392;50.964;6.952;2024-01-15T15:16:40;2.91;-2.41
51305;HTU21D;37392;50.964;6.952;2024-01-15T15:19:05;2.88;-1.58
51305;HTU21D;37392;50.964;6.952;2024-01-15T15:21:31;2.91;-0.77
51305;HTU21D;37392;50.964;6.952;2024-01-15T15:23:56;2.87;-1.05
51305;HTU21D;37392;50.964;6.952;2024-01-15T15:26:22;2.82;-1.70
51305;HTU21D;37392;50.964;6.952;2024-01-15T15:28:47;2.81;-1.44
51305;HTU21D;37392;50.964;6.952;2024-01-15T15:31:14;2.84;-1.53
51305;HTU21D;37392;50.964;6.952;2024-01-15T15:33:39;2.82;-1.21
51305;HTU21D;37392;50.964;6.952;2024-01-15T15:36:05;2.82;-0.58
51305;HTU21D;37392;50.964;6.952;2024-01-15T15:38:31;2.79;-1.44
51305;HTU21D;37392;50.964;6.952;2024-01-15T15:40:57;2.69;-2.12
51305;HTU21D;37392;50.964;6.952;2024-01-15T15:43:25;2.70;-1.83